Time,TemperatureF,DewpointF,PressureIn,WindDirection,WindDirectionDegrees,WindSpeedMPH,WindSpeedGustMPH,Humidity,HourlyPrecipIn,Conditions,Clouds,dailyrainin,SoftwareType,DateUTC
2013-08-17 00:01:00,62.6,59.9,30.08,NNE,26,0.0,0.0,91,0.00,,,0.00,LWC V2.00 B2112,2013-08-17 04:01:00,
2013-08-17 00:06:00,62.6,59.9,30.08,NNE,26,0.0,0.0,91,0.00,,,0.00,LWC V2.00 B2112,2013-08-17 04:06:00,
2013-08-17 00:11:00,62.6,59.9,30.08,NNE,26,0.0,0.0,91,0.00,,,0.00,LWC V2.00 B2112,2013-08-17 04:11:00,
2013-08-17 00:16:00,62.6,59.9,30.08,NNE,26,0.0,0.0,91,0.00,,,0.00,LWC V2.00 B2112,2013-08-17 04:16:00,
2013-08-17 00:21:00,62.6,59.9,30.08,NNE,26,0.0,0.0,91,0.00,,,0.00,LWC V2.00 B2112,2013-08-17 04:21:00,
2013-08-17 00:26:00,62.4,59.7,30.08,NNE,26,0.0,0.0,91,0.00,,,0.00,LWC V2.00 B2112,2013-08-17 04:26:00,
2013-08-17 00:31:00,62.4,59.7,30.08,NNE,26,0.0,0.0,91,0.00,,,0.00,LWC V2.00 B2112,2013-08-17 04:31:00,
2013-08-17 00:36:00,62.4,59.7,30.08,NNE,26,0.0,0.0,91,0.00,,,0.00,LWC V2.00 B2112,2013-08-17 04:36:00,
2013-08-17 00:41:00,62.4,60.0,30.08,NNE,26,0.0,0.0,92,0.00,,,0.00,LWC V2.00 B2112,2013-08-17 04:41:00,
2013-08-17 00:46:00,62.4,60.0,30.08,NNE,26,0.0,0.0,92,0.00,,,0.00,LWC V2.00 B2112,2013-08-17 04:46:00,
2013-08-17 00:51:00,62.3,59.9,30.08,NNE,26,0.0,0.0,92,0.00,,,0.00,LWC V2.00 B2112,2013-08-17 04:51:00,
2013-08-17 00:56:00,62.3,59.9,30.08,NNE,26,0.0,0.0,92,0.00,,,0.00,LWC V2.00 B2112,2013-08-17 04:56:00,
2013-08-17 01:01:00,62.3,59.9,30.08,NNE,26,0.0,0.0,92,0.00,,,0.00,LWC V2.00 B2112,2013-08-17 05:01:00,
2013-08-17 01:06:00,62.3,59.9,30.08,NNE,26,0.0,0.0,92,0.00,,,0.00,LWC V2.00 B2112,2013-08-17 05:06:00,
2013-08-17 01:11:00,62.3,59.9,30.08,NNE,26,0.0,0.0,92,0.00,,,0.00,LWC V2.00 B2112,2013-08-17 05:11:00,
2013-08-17 01:16:00,62.3,59.9,30.08,NNE,26,0.0,0.0,92,0.00,,,0.00,LWC V2.00 B2112,2013-08-17 05:16:00,
2013-08-17 01:21:00,62.3,59.9,30.08,NNE,26,0.0,0.0,92,0.00,,,0.00,LWC V2.00 B2112,2013-08-17 05:21:00,
2013-08-17 01:26:00,62.4,60.0,30.08,NNE,26,0.0,0.0,92,0.00,,,0.00,LWC V2.00 B2112,2013-08-17 05:26:00,
2013-08-17 01:31:00,62.4,60.0,30.08,NNE,26,0.0,0.0,92,0.00,,,0.00,LWC V2.00 B2112,2013-08-17 05:31:00,
2013-08-17 01:36:00,62.4,60.0,30.08,NNE,26,0.0,0.0,92,0.00,,,0.00,LWC V2.00 B2112,2013-08-17 05:36:00,
2013-08-17 01:41:00,62.6,60.2,30.08,East,86,0.0,0.0,92,0.00,,,0.00,LWC V2.00 B2112,2013-08-17 05:41:00,
2013-08-17 01:46:00,62.6,59.9,30.08,East,86,0.0,0.0,91,0.00,,,0.00,LWC V2.00 B2112,2013-08-17 05:46:00,
2013-08-17 01:51:00,62.6,59.9,30.07,East,86,0.0,0.0,91,0.00,,,0.00,LWC V2.00 B2112,2013-08-17 05:51:00,
2013-08-17 01:56:00,62.7,60.0,30.07,East,86,0.0,0.0,91,0.00,,,0.00,LWC V2.00 B2112,2013-08-17 05:56:00,
2013-08-17 02:01:00,62.7,59.7,30.07,East,86,0.0,0.0,90,0.00,,,0.00,LWC V2.00 B2112,2013-08-17 06:01:00,
2013-08-17 02:06:00,62.7,59.7,30.07,East,86,0.0,0.0,90,0.00,,,0.00,LWC V2.00 B2112,2013-08-17 06:06:00,
2013-08-17 02:11:00,62.7,59.7,30.07,East,86,0.0,0.0,90,0.00,,,0.00,LWC V2.00 B2112,2013-08-17 06:11:00,
2013-08-17 02:16:00,62.6,59.3,30.07,East,86,0.0,0.0,89,0.00,,,0.00,LWC V2.00 B2112,2013-08-17 06:16:00,
2013-08-17 02:21:00,62.6,59.3,30.07,East,86,0.0,0.0,89,0.00,,,0.00,LWC V2.00 B2112,2013-08-17 06:21:00,
2013-08-17 02:26:00,62.6,59.3,30.07,East,86,0.0,0.0,89,0.00,,,0.00,LWC V2.00 B2112,2013-08-17 06:26:00,
2013-08-17 02:31:00,62.6,59.3,30.07,NE,52,0.0,0.0,89,0.00,,,0.00,LWC V2.00 B2112,2013-08-17 06:31:00,
2013-08-17 02:36:00,62.6,59.6,30.07,NE,52,0.0,0.0,90,0.00,,,0.00,LWC V2.00 B2112,2013-08-17 06:36:00,
2013-08-17 02:41:00,62.7,59.7,30.07,NE,52,0.0,0.0,90,0.00,,,0.00,LWC V2.00 B2112,2013-08-17 06:41:00,
2013-08-17 02:46:00,62.9,59.9,30.07,NE,56,0.0,0.0,90,0.00,,,0.00,LWC V2.00 B2112,2013-08-17 06:46:00,
2013-08-17 02:51:00,62.9,59.6,30.06,NE,51,0.0,0.0,89,0.00,,,0.00,LWC V2.00 B2112,2013-08-17 06:51:00,
2013-08-17 02:56:00,63.1,59.8,30.06,NE,51,0.0,0.0,89,0.00,,,0.00,LWC V2.00 B2112,2013-08-17 06:56:00,
2013-08-17 03:01:00,63.2,59.9,30.06,East,85,0.0,0.0,89,0.00,,,0.00,LWC V2.00 B2112,2013-08-17 07:01:00,
2013-08-17 03:06:00,63.2,59.9,30.06,East,85,0.0,0.0,89,0.00,,,0.00,LWC V2.00 B2112,2013-08-17 07:06:00,
2013-08-17 03:11:00,63.2,59.9,30.06,East,85,0.0,0.0,89,0.00,,,0.00,LWC V2.00 B2112,2013-08-17 07:11:00,
2013-08-17 03:16:00,63.2,59.9,30.06,East,85,0.0,0.0,89,0.00,,,0.00,LWC V2.00 B2112,2013-08-17 07:16:00,
2013-08-17 03:21:00,63.2,59.9,30.06,East,85,0.0,0.0,89,0.00,,,0.00,LWC V2.00 B2112,2013-08-17 07:21:00,
2013-08-17 03:26:00,63.2,59.9,30.06,East,85,0.0,0.0,89,0.00,,,0.00,LWC V2.00 B2112,2013-08-17 07:26:00,
2013-08-17 03:31:00,63.2,59.9,30.06,East,85,0.0,0.0,89,0.00,,,0.00,LWC V2.00 B2112,2013-08-17 07:31:00,
2013-08-17 03:36:00,63.2,59.9,30.06,East,85,0.0,0.0,89,0.00,,,0.00,LWC V2.00 B2112,2013-08-17 07:36:00,
2013-08-17 03:41:00,63.4,60.4,30.06,East,85,0.0,0.0,90,0.00,,,0.00,LWC V2.00 B2112,2013-08-17 07:41:00,
2013-08-17 03:46:00,63.4,60.4,30.06,East,85,0.0,0.0,90,0.00,,,0.00,LWC V2.00 B2112,2013-08-17 07:46:00,
2013-08-17 03:51:00,63.4,60.1,30.07,East,85,0.0,0.0,89,0.00,,,0.00,LWC V2.00 B2112,2013-08-17 07:51:00,
2013-08-17 03:56:00,63.5,60.2,30.07,East,85,0.0,0.0,89,0.00,,,0.00,LWC V2.00 B2112,2013-08-17 07:56:00,
2013-08-17 04:01:00,63.5,60.2,30.07,East,85,0.0,0.0,89,0.00,,,0.00,LWC V2.00 B2112,2013-08-17 08:01:00,
2013-08-17 04:06:00,63.5,60.2,30.06,East,85,0.0,0.0,89,0.00,,,0.00,LWC V2.00 B2112,2013-08-17 08:06:00,
2013-08-17 04:11:00,63.5,60.2,30.06,East,85,0.0,0.0,89,0.00,,,0.00,LWC V2.00 B2112,2013-08-17 08:11:00,
2013-08-17 04:16:00,63.5,60.2,30.06,East,85,0.0,0.0,89,0.00,,,0.00,LWC V2.00 B2112,2013-08-17 08:16:00,
2013-08-17 04:21:00,63.5,60.2,30.06,East,85,0.0,0.0,89,0.00,,,0.00,LWC V2.00 B2112,2013-08-17 08:21:00,
2013-08-17 04:26:00,63.5,60.5,30.06,East,85,0.0,0.0,90,0.00,,,0.00,LWC V2.00 B2112,2013-08-17 08:26:00,
2013-08-17 04:31:00,63.5,60.2,30.06,East,85,0.0,0.0,89,0.00,,,0.00,LWC V2.00 B2112,2013-08-17 08:31:00,
2013-08-17 04:36:00,63.4,60.1,30.06,East,85,0.0,0.0,89,0.00,,,0.00,LWC V2.00 B2112,2013-08-17 08:36:00,
2013-08-17 04:41:00,63.4,60.1,30.06,East,90,0.0,0.0,89,0.00,,,0.00,LWC V2.00 B2112,2013-08-17 08:41:00,
2013-08-17 04:46:00,63.4,60.1,30.06,East,90,0.0,0.0,89,0.00,,,0.00,LWC V2.00 B2112,2013-08-17 08:46:00,
2013-08-17 04:51:00,63.4,60.1,30.05,NNE,24,0.0,0.0,89,0.00,,,0.00,LWC V2.00 B2112,2013-08-17 08:51:00,
2013-08-17 04:56:00,63.4,60.1,30.05,NE,52,0.0,0.0,89,0.00,,,0.00,LWC V2.00 B2112,2013-08-17 08:56:00,
2013-08-17 05:01:00,63.4,60.1,30.05,NE,52,0.0,0.0,89,0.00,,,0.00,LWC V2.00 B2112,2013-08-17 09:01:00,
2013-08-17 05:06:00,63.4,60.1,30.06,SE,138,0.0,0.0,89,0.00,,,0.00,LWC V2.00 B2112,2013-08-17 09:06:00,
2013-08-17 05:11:00,63.4,60.4,30.06,SE,141,0.0,0.0,90,0.00,,,0.00,LWC V2.00 B2112,2013-08-17 09:11:00,
2013-08-17 05:16:00,63.4,60.1,30.06,SE,140,0.0,0.0,89,0.00,,,0.00,LWC V2.00 B2112,2013-08-17 09:16:00,
2013-08-17 05:21:00,63.4,60.1,30.06,SE,140,0.0,0.0,89,0.00,,,0.00,LWC V2.00 B2112,2013-08-17 09:21:00,
2013-08-17 05:26:00,63.5,60.2,30.06,WNW,289,0.0,0.0,89,0.00,,,0.00,LWC V2.00 B2112,2013-08-17 09:26:00,
2013-08-17 05:31:00,63.5,60.2,30.06,WNW,289,0.0,0.0,89,0.00,,,0.00,LWC V2.00 B2112,2013-08-17 09:31:00,
2013-08-17 05:36:00,63.5,60.2,30.05,ENE,67,0.0,0.0,89,0.00,,,0.00,LWC V2.00 B2112,2013-08-17 09:36:00,
2013-08-17 05:41:00,63.5,60.2,30.05,ENE,67,0.0,0.0,89,0.00,,,0.00,LWC V2.00 B2112,2013-08-17 09:41:00,
2013-08-17 05:46:00,63.5,60.2,30.05,ENE,67,0.0,0.0,89,0.00,,,0.00,LWC V2.00 B2112,2013-08-17 09:46:00,
2013-08-17 05:51:00,63.5,60.5,30.06,ENE,67,0.0,0.0,90,0.00,,,0.00,LWC V2.00 B2112,2013-08-17 09:51:00,
2013-08-17 05:56:00,63.5,60.2,30.06,ENE,67,0.0,0.0,89,0.00,,,0.00,LWC V2.00 B2112,2013-08-17 09:56:00,
2013-08-17 06:01:00,63.5,60.2,30.06,ENE,67,0.0,0.0,89,0.00,,,0.00,LWC V2.00 B2112,2013-08-17 10:01:00,
2013-08-17 06:06:00,63.5,60.2,30.07,ENE,67,0.0,0.0,89,0.00,,,0.00,LWC V2.00 B2112,2013-08-17 10:06:00,
2013-08-17 06:11:00,63.5,60.2,30.07,ENE,67,0.0,0.0,89,0.00,,,0.00,LWC V2.00 B2112,2013-08-17 10:11:00,
2013-08-17 06:16:00,63.5,60.2,30.07,East,89,0.0,0.0,89,0.00,,,0.00,LWC V2.00 B2112,2013-08-17 10:16:00,
2013-08-17 06:21:00,63.5,60.2,30.06,East,89,0.0,0.0,89,0.00,,,0.00,LWC V2.00 B2112,2013-08-17 10:21:00,
2013-08-17 06:26:00,63.5,60.2,30.06,East,89,0.0,0.0,89,0.00,,,0.00,LWC V2.00 B2112,2013-08-17 10:26:00,
2013-08-17 06:31:00,63.7,60.4,30.06,East,89,0.0,0.0,89,0.00,,,0.00,LWC V2.00 B2112,2013-08-17 10:31:00,
2013-08-17 06:36:00,63.7,60.4,30.07,East,89,0.0,0.0,89,0.00,,,0.00,LWC V2.00 B2112,2013-08-17 10:36:00,
2013-08-17 06:41:00,63.7,60.4,30.07,East,89,0.0,0.0,89,0.00,,,0.00,LWC V2.00 B2112,2013-08-17 10:41:00,
2013-08-17 06:46:00,63.7,60.7,30.07,East,89,0.0,0.0,90,0.00,,,0.00,LWC V2.00 B2112,2013-08-17 10:46:00,
2013-08-17 06:51:00,63.7,60.4,30.07,East,89,0.0,0.0,89,0.00,,,0.00,LWC V2.00 B2112,2013-08-17 10:51:00,
2013-08-17 06:56:00,63.7,60.4,30.07,East,91,0.0,0.0,89,0.00,,,0.00,LWC V2.00 B2112,2013-08-17 10:56:00,
2013-08-17 07:01:00,63.7,60.4,30.07,East,91,0.0,0.0,89,0.00,,,0.00,LWC V2.00 B2112,2013-08-17 11:01:00,
2013-08-17 07:06:00,63.9,60.6,30.07,East,86,0.0,0.0,89,0.00,,,0.00,LWC V2.00 B2112,2013-08-17 11:06:00,
2013-08-17 07:11:00,63.9,60.6,30.07,East,86,0.0,0.0,89,0.00,,,0.00,LWC V2.00 B2112,2013-08-17 11:11:00,
2013-08-17 07:16:00,63.9,60.6,30.07,East,86,0.0,0.0,89,0.00,,,0.00,LWC V2.00 B2112,2013-08-17 11:16:00,
2013-08-17 07:21:00,64.0,60.7,30.08,East,86,0.0,0.0,89,0.00,,,0.00,LWC V2.00 B2112,2013-08-17 11:21:00,
2013-08-17 07:26:00,64.0,60.7,30.08,ESE,107,0.0,0.0,89,0.00,,,0.00,LWC V2.00 B2112,2013-08-17 11:26:00,
2013-08-17 07:31:00,64.2,60.9,30.08,ESE,107,0.0,0.0,89,0.00,,,0.00,LWC V2.00 B2112,2013-08-17 11:31:00,
2013-08-17 07:36:00,64.2,61.2,30.08,ESE,107,0.0,0.0,90,0.00,,,0.00,LWC V2.00 B2112,2013-08-17 11:36:00,
2013-08-17 07:41:00,64.2,61.2,30.08,ESE,107,0.0,0.0,90,0.00,,,0.00,LWC V2.00 B2112,2013-08-17 11:41:00,
2013-08-17 07:46:00,64.3,61.3,30.08,ESE,107,0.0,0.0,90,0.00,,,0.00,LWC V2.00 B2112,2013-08-17 11:46:00,
2013-08-17 07:51:00,64.5,61.5,30.08,ESE,107,0.0,0.0,90,0.00,,,0.00,LWC V2.00 B2112,2013-08-17 11:51:00,
2013-08-17 07:56:00,64.5,61.5,30.08,ESE,107,0.0,0.0,90,0.00,,,0.00,LWC V2.00 B2112,2013-08-17 11:56:00,
2013-08-17 08:01:00,64.7,61.7,30.08,East,95,0.0,0.0,90,0.00,,,0.00,LWC V2.00 B2112,2013-08-17 12:01:00,
2013-08-17 08:06:00,64.8,61.8,30.08,East,95,0.0,0.0,90,0.00,,,0.00,LWC V2.00 B2112,2013-08-17 12:06:00,
2013-08-17 08:11:00,65.0,62.0,30.08,East,95,0.0,0.0,90,0.00,,,0.00,LWC V2.00 B2112,2013-08-17 12:11:00,
2013-08-17 08:16:00,65.0,62.0,30.08,East,95,0.0,0.0,90,0.00,,,0.00,LWC V2.00 B2112,2013-08-17 12:16:00,
2013-08-17 08:21:00,65.2,62.2,30.08,East,95,0.0,0.0,90,0.00,,,0.00,LWC V2.00 B2112,2013-08-17 12:21:00,
2013-08-17 08:26:00,65.2,62.5,30.08,East,95,0.0,0.0,91,0.00,,,0.00,LWC V2.00 B2112,2013-08-17 12:26:00,
2013-08-17 08:31:00,65.3,62.3,30.08,SE,127,0.0,0.0,90,0.00,,,0.00,LWC V2.00 B2112,2013-08-17 12:31:00,
2013-08-17 08:36:00,65.5,62.8,30.08,SE,127,0.0,0.0,91,0.00,,,0.00,LWC V2.00 B2112,2013-08-17 12:36:00,
2013-08-17 08:41:00,65.5,62.5,30.08,SE,127,0.0,0.0,90,0.00,,,0.00,LWC V2.00 B2112,2013-08-17 12:41:00,
2013-08-17 08:46:00,65.6,62.9,30.08,SE,131,0.0,0.0,91,0.00,,,0.00,LWC V2.00 B2112,2013-08-17 12:46:00,
2013-08-17 08:51:00,65.8,62.8,30.08,SE,131,0.0,0.0,90,0.00,,,0.00,LWC V2.00 B2112,2013-08-17 12:51:00,
2013-08-17 08:56:00,65.8,62.8,30.08,SE,146,0.0,0.0,90,0.00,,,0.00,LWC V2.00 B2112,2013-08-17 12:56:00,
2013-08-17 09:01:00,66.0,63.0,30.08,SSE,148,0.0,0.0,90,0.00,,,0.00,LWC V2.00 B2112,2013-08-17 13:01:00,
2013-08-17 09:06:00,65.8,62.8,30.08,NNE,21,0.0,0.0,90,0.00,,,0.00,LWC V2.00 B2112,2013-08-17 13:06:00,
2013-08-17 09:11:00,65.8,63.1,30.08,NNE,21,0.0,0.0,91,0.00,,,0.00,LWC V2.00 B2112,2013-08-17 13:11:00,
2013-08-17 09:16:00,66.0,63.3,30.08,ESE,104,0.0,0.0,91,0.00,,,0.00,LWC V2.00 B2112,2013-08-17 13:16:00,
2013-08-17 09:21:00,66.0,63.6,30.08,ESE,104,0.0,0.0,92,0.00,,,0.00,LWC V2.00 B2112,2013-08-17 13:21:00,
2013-08-17 09:26:00,65.8,63.4,30.08,NE,36,0.0,0.0,92,0.00,,,0.00,LWC V2.00 B2112,2013-08-17 13:26:00,
2013-08-17 09:31:00,65.8,63.7,30.08,ENE,63,0.0,0.0,93,0.00,,,0.00,LWC V2.00 B2112,2013-08-17 13:31:00,
2013-08-17 09:36:00,65.8,64.0,30.08,ENE,63,0.0,0.0,94,0.00,,,0.00,LWC V2.00 B2112,2013-08-17 13:36:00,
2013-08-17 09:41:00,65.8,64.0,30.08,ENE,63,0.0,0.0,94,0.00,,,0.00,LWC V2.00 B2112,2013-08-17 13:41:00,
2013-08-17 09:46:00,66.0,64.5,30.08,ENE,63,0.0,0.0,95,0.00,,,0.00,LWC V2.00 B2112,2013-08-17 13:46:00,
2013-08-17 09:51:00,65.8,64.0,30.08,ENE,63,0.0,0.0,94,0.00,,,0.00,LWC V2.00 B2112,2013-08-17 13:51:00,
2013-08-17 09:56:00,65.8,64.3,30.08,SE,136,0.0,0.0,95,0.00,,,0.00,LWC V2.00 B2112,2013-08-17 13:56:00,
2013-08-17 10:01:00,65.8,64.3,30.08,SE,136,0.0,0.0,95,0.00,,,0.00,LWC V2.00 B2112,2013-08-17 14:01:00,
2013-08-17 10:06:00,66.0,64.5,30.08,North,359,0.0,0.0,95,0.00,,,0.00,LWC V2.00 B2112,2013-08-17 14:06:00,
2013-08-17 10:11:00,66.0,64.5,30.08,NNE,16,0.0,0.0,95,0.00,,,0.00,LWC V2.00 B2112,2013-08-17 14:11:00,
2013-08-17 10:16:00,66.3,64.8,30.08,North,6,0.0,0.0,95,0.00,,,0.00,LWC V2.00 B2112,2013-08-17 14:16:00,
2013-08-17 10:21:00,66.3,64.8,30.09,WNW,303,0.0,0.0,95,0.00,,,0.00,LWC V2.00 B2112,2013-08-17 14:21:00,
2013-08-17 10:26:00,66.1,64.3,30.09,North,350,0.0,0.0,94,0.00,,,0.00,LWC V2.00 B2112,2013-08-17 14:26:00,
2013-08-17 10:31:00,66.3,64.8,30.09,North,350,0.0,0.0,95,0.00,,,0.00,LWC V2.00 B2112,2013-08-17 14:31:00,
2013-08-17 10:36:00,66.3,64.5,30.10,North,350,0.0,0.0,94,0.00,,,0.00,LWC V2.00 B2112,2013-08-17 14:36:00,
2013-08-17 10:41:00,66.3,64.5,30.10,North,350,0.0,0.0,94,0.00,,,0.00,LWC V2.00 B2112,2013-08-17 14:41:00,
2013-08-17 10:46:00,66.3,64.8,30.10,East,97,0.0,0.0,95,0.00,,,0.00,LWC V2.00 B2112,2013-08-17 14:46:00,
2013-08-17 10:51:00,66.4,64.9,30.10,East,97,0.0,0.0,95,0.00,,,0.00,LWC V2.00 B2112,2013-08-17 14:51:00,
2013-08-17 10:56:00,66.6,65.1,30.10,East,97,0.0,0.0,95,0.00,,,0.01,LWC V2.00 B2112,2013-08-17 14:56:00,
2013-08-17 11:01:00,66.4,64.9,30.10,NNE,29,0.0,0.0,95,0.00,,,0.01,LWC V2.00 B2112,2013-08-17 15:01:00,
2013-08-17 11:06:00,66.6,65.1,30.10,NNE,29,0.0,0.0,95,0.00,,,0.01,LWC V2.00 B2112,2013-08-17 15:06:00,
2013-08-17 11:11:00,66.6,65.1,30.10,East,100,0.0,0.0,95,0.00,,,0.01,LWC V2.00 B2112,2013-08-17 15:11:00,
2013-08-17 11:16:00,66.8,65.3,30.10,East,100,0.0,0.0,95,0.00,,,0.01,LWC V2.00 B2112,2013-08-17 15:16:00,
2013-08-17 11:21:00,66.9,65.7,30.09,East,100,0.0,0.0,96,0.00,,,0.01,LWC V2.00 B2112,2013-08-17 15:21:00,
2013-08-17 11:26:00,66.9,65.4,30.09,East,100,0.0,0.0,95,0.00,,,0.01,LWC V2.00 B2112,2013-08-17 15:26:00,
2013-08-17 11:31:00,66.9,65.4,30.09,East,100,0.0,0.0,95,0.00,,,0.01,LWC V2.00 B2112,2013-08-17 15:31:00,
2013-08-17 11:36:00,66.9,65.4,30.10,East,100,0.0,0.0,95,0.00,,,0.01,LWC V2.00 B2112,2013-08-17 15:36:00,
2013-08-17 11:41:00,66.9,65.4,30.10,WSW,238,0.0,0.0,95,0.00,,,0.01,LWC V2.00 B2112,2013-08-17 15:41:00,
2013-08-17 11:46:00,67.1,65.6,30.10,ESE,106,0.0,0.0,95,0.00,,,0.01,LWC V2.00 B2112,2013-08-17 15:46:00,
2013-08-17 11:51:00,67.1,65.6,30.09,ESE,106,0.0,0.0,95,0.00,,,0.01,LWC V2.00 B2112,2013-08-17 15:51:00,
2013-08-17 11:56:00,67.3,65.8,30.09,ESE,105,0.0,0.0,95,0.00,,,0.01,LWC V2.00 B2112,2013-08-17 15:56:00,
2013-08-17 12:01:00,67.3,65.8,30.09,SE,131,0.0,0.0,95,0.00,,,0.01,LWC V2.00 B2112,2013-08-17 16:01:00,
2013-08-17 12:06:00,67.6,66.4,30.09,SE,131,0.0,0.0,96,0.00,,,0.01,LWC V2.00 B2112,2013-08-17 16:06:00,
2013-08-17 12:11:00,67.6,66.1,30.09,East,89,0.0,0.0,95,0.00,,,0.01,LWC V2.00 B2112,2013-08-17 16:11:00,
2013-08-17 12:16:00,67.8,66.3,30.09,North,359,0.0,0.0,95,0.00,,,0.01,LWC V2.00 B2112,2013-08-17 16:16:00,
2013-08-17 12:21:00,67.9,66.4,30.08,North,359,0.0,0.0,95,0.00,,,0.01,LWC V2.00 B2112,2013-08-17 16:21:00,
2013-08-17 12:26:00,67.9,66.4,30.08,North,359,0.0,0.0,95,0.00,,,0.01,LWC V2.00 B2112,2013-08-17 16:26:00,
2013-08-17 12:31:00,68.1,66.6,30.08,SE,125,0.0,0.0,95,0.00,,,0.01,LWC V2.00 B2112,2013-08-17 16:31:00,
2013-08-17 12:36:00,68.3,66.8,30.08,SE,125,0.0,0.0,95,0.00,,,0.01,LWC V2.00 B2112,2013-08-17 16:36:00,
2013-08-17 12:41:00,68.6,67.1,30.08,SE,125,0.0,0.0,95,0.00,,,0.01,LWC V2.00 B2112,2013-08-17 16:41:00,
2013-08-17 12:46:00,68.8,67.3,30.08,SE,125,0.0,0.0,95,0.00,,,0.01,LWC V2.00 B2112,2013-08-17 16:46:00,
2013-08-17 12:51:00,68.9,67.4,30.08,SE,125,0.0,0.0,95,0.00,,,0.01,LWC V2.00 B2112,2013-08-17 16:51:00,
2013-08-17 12:56:00,68.9,67.1,30.08,SE,125,0.0,0.0,94,0.00,,,0.01,LWC V2.00 B2112,2013-08-17 16:56:00,
2013-08-17 13:01:00,69.1,67.3,30.08,SE,125,0.0,0.0,94,0.00,,,0.01,LWC V2.00 B2112,2013-08-17 17:01:00,
2013-08-17 13:06:00,69.3,67.5,30.07,SE,125,0.0,0.0,94,0.00,,,0.01,LWC V2.00 B2112,2013-08-17 17:06:00,
2013-08-17 13:11:00,69.3,67.5,30.07,SE,125,0.0,0.0,94,0.00,,,0.01,LWC V2.00 B2112,2013-08-17 17:11:00,
2013-08-17 13:16:00,69.4,67.6,30.07,North,1,0.0,0.0,94,0.00,,,0.01,LWC V2.00 B2112,2013-08-17 17:16:00,
2013-08-17 13:21:00,69.4,67.6,30.08,North,1,0.0,0.0,94,0.00,,,0.01,LWC V2.00 B2112,2013-08-17 17:21:00,
2013-08-17 13:26:00,69.6,67.8,30.08,East,81,0.0,0.0,94,0.00,,,0.01,LWC V2.00 B2112,2013-08-17 17:26:00,
2013-08-17 13:31:00,69.6,67.8,30.08,East,81,0.0,0.0,94,0.00,,,0.01,LWC V2.00 B2112,2013-08-17 17:31:00,
2013-08-17 13:36:00,69.6,67.8,30.08,East,81,0.0,0.0,94,0.00,,,0.01,LWC V2.00 B2112,2013-08-17 17:36:00,
2013-08-17 13:41:00,69.8,68.3,30.08,East,81,0.0,0.0,95,0.00,,,0.01,LWC V2.00 B2112,2013-08-17 17:41:00,
2013-08-17 13:46:00,69.9,68.4,30.08,East,81,0.0,0.0,95,0.00,,,0.01,LWC V2.00 B2112,2013-08-17 17:46:00,
2013-08-17 13:51:00,69.9,68.4,30.07,East,81,0.0,0.0,95,0.00,,,0.01,LWC V2.00 B2112,2013-08-17 17:51:00,
2013-08-17 13:56:00,70.1,68.6,30.07,East,81,0.0,0.0,95,0.00,,,0.01,LWC V2.00 B2112,2013-08-17 17:56:00,
2013-08-17 14:01:00,70.1,68.6,30.07,SSE,158,0.0,0.0,95,0.00,,,0.01,LWC V2.00 B2112,2013-08-17 18:01:00,
2013-08-17 14:06:00,70.3,68.8,30.07,SSE,148,0.0,0.0,95,0.00,,,0.01,LWC V2.00 B2112,2013-08-17 18:06:00,
2013-08-17 14:11:00,70.4,68.9,30.07,SSE,148,0.0,0.0,95,0.00,,,0.01,LWC V2.00 B2112,2013-08-17 18:11:00,
2013-08-17 14:16:00,70.6,69.1,30.07,SSE,148,0.0,0.0,95,0.00,,,0.01,LWC V2.00 B2112,2013-08-17 18:16:00,
2013-08-17 14:21:00,70.8,69.3,30.07,SE,126,0.0,0.0,95,0.00,,,0.01,LWC V2.00 B2112,2013-08-17 18:21:00,
2013-08-17 14:26:00,70.8,69.3,30.07,SE,141,0.0,0.0,95,0.00,,,0.01,LWC V2.00 B2112,2013-08-17 18:26:00,
2013-08-17 14:31:00,70.8,69.0,30.07,SE,141,0.0,0.0,94,0.00,,,0.01,LWC V2.00 B2112,2013-08-17 18:31:00,
2013-08-17 14:36:00,70.8,69.3,30.06,SE,141,0.0,0.0,95,0.00,,,0.01,LWC V2.00 B2112,2013-08-17 18:36:00,
2013-08-17 14:41:00,70.8,69.3,30.06,SE,141,0.0,0.0,95,0.00,,,0.01,LWC V2.00 B2112,2013-08-17 18:41:00,
2013-08-17 14:46:00,70.9,69.7,30.06,SE,141,0.0,0.0,96,0.00,,,0.01,LWC V2.00 B2112,2013-08-17 18:46:00,
2013-08-17 14:51:00,71.1,69.9,30.05,NW,319,0.0,0.0,96,0.00,,,0.01,LWC V2.00 B2112,2013-08-17 18:51:00,
2013-08-17 14:56:00,71.1,69.9,30.05,NW,319,0.0,0.0,96,0.00,,,0.02,LWC V2.00 B2112,2013-08-17 18:56:00,
2013-08-17 15:01:00,71.1,69.9,30.05,NW,319,0.0,0.0,96,0.00,,,0.02,LWC V2.00 B2112,2013-08-17 19:01:00,
2013-08-17 15:06:00,71.3,70.1,30.05,NW,319,0.0,0.0,96,0.00,,,0.02,LWC V2.00 B2112,2013-08-17 19:06:00,
2013-08-17 15:11:00,71.3,70.1,30.05,NW,319,0.0,0.0,96,0.00,,,0.02,LWC V2.00 B2112,2013-08-17 19:11:00,
2013-08-17 15:16:00,71.3,70.1,30.05,NW,319,0.0,0.0,96,0.00,,,0.02,LWC V2.00 B2112,2013-08-17 19:16:00,
2013-08-17 15:21:00,71.3,70.1,30.05,NW,319,0.0,0.0,96,0.00,,,0.03,LWC V2.00 B2112,2013-08-17 19:21:00,
2013-08-17 15:26:00,71.3,70.1,30.05,NW,319,0.0,0.0,96,0.00,,,0.03,LWC V2.00 B2112,2013-08-17 19:26:00,
2013-08-17 15:31:00,71.3,70.1,30.05,NW,319,0.0,0.0,96,0.00,,,0.03,LWC V2.00 B2112,2013-08-17 19:31:00,
2013-08-17 15:36:00,71.5,70.6,30.04,NW,319,0.0,0.0,97,0.00,,,0.03,LWC V2.00 B2112,2013-08-17 19:36:00,
2013-08-17 15:41:00,71.5,70.6,30.04,NW,319,0.0,0.0,97,0.00,,,0.03,LWC V2.00 B2112,2013-08-17 19:41:00,
2013-08-17 15:46:00,71.5,70.6,30.04,NW,319,0.0,0.0,97,0.00,,,0.03,LWC V2.00 B2112,2013-08-17 19:46:00,
2013-08-17 15:51:00,71.6,70.7,30.04,NW,319,0.0,0.0,97,0.00,,,0.03,LWC V2.00 B2112,2013-08-17 19:51:00,
2013-08-17 15:56:00,71.6,70.7,30.04,NW,319,0.0,0.0,97,0.00,,,0.04,LWC V2.00 B2112,2013-08-17 19:56:00,
2013-08-17 16:01:00,71.6,70.7,30.04,NW,319,0.0,0.0,97,0.00,,,0.04,LWC V2.00 B2112,2013-08-17 20:01:00,
2013-08-17 16:06:00,71.8,70.9,30.04,NW,319,0.0,0.0,97,0.00,,,0.04,LWC V2.00 B2112,2013-08-17 20:06:00,
2013-08-17 16:11:00,72.0,71.1,30.04,NW,319,0.0,0.0,97,0.05,,,0.05,LWC V2.00 B2112,2013-08-17 20:11:00,
2013-08-17 16:16:00,71.8,70.9,30.04,NW,319,0.0,0.0,97,0.07,,,0.06,LWC V2.00 B2112,2013-08-17 20:16:00,
2013-08-17 16:21:00,71.6,70.7,30.03,NW,319,0.0,0.0,97,0.07,,,0.06,LWC V2.00 B2112,2013-08-17 20:21:00,
2013-08-17 16:26:00,71.6,70.7,30.03,NW,319,0.0,0.0,97,0.06,,,0.06,LWC V2.00 B2112,2013-08-17 20:26:00,
2013-08-17 16:31:00,71.6,70.7,30.03,NW,319,0.0,0.0,97,0.04,,,0.06,LWC V2.00 B2112,2013-08-17 20:31:00,
2013-08-17 16:36:00,71.8,70.9,30.03,NW,319,0.0,0.0,97,0.04,,,0.07,LWC V2.00 B2112,2013-08-17 20:36:00,
2013-08-17 16:41:00,71.8,70.9,30.03,NE,39,0.0,0.0,97,0.04,,,0.07,LWC V2.00 B2112,2013-08-17 20:41:00,
2013-08-17 16:46:00,71.6,70.7,30.03,SE,126,0.0,0.0,97,0.04,,,0.07,LWC V2.00 B2112,2013-08-17 20:46:00,
2013-08-17 16:51:00,71.5,70.6,30.03,SE,126,0.0,0.0,97,0.00,,,0.07,LWC V2.00 B2112,2013-08-17 20:51:00,
2013-08-17 16:56:00,71.5,70.6,30.03,SE,126,0.0,0.0,97,0.00,,,0.07,LWC V2.00 B2112,2013-08-17 20:56:00,
2013-08-17 17:01:00,71.3,70.4,30.03,SE,126,0.0,0.0,97,0.00,,,0.07,LWC V2.00 B2112,2013-08-17 21:01:00,
2013-08-17 17:06:00,71.3,70.4,30.04,East,90,0.0,0.0,97,0.00,,,0.07,LWC V2.00 B2112,2013-08-17 21:06:00,
2013-08-17 17:11:00,71.1,70.2,30.04,East,90,0.0,0.0,97,0.00,,,0.07,LWC V2.00 B2112,2013-08-17 21:11:00,
2013-08-17 17:16:00,71.1,70.2,30.04,East,90,0.0,0.0,97,0.00,,,0.07,LWC V2.00 B2112,2013-08-17 21:16:00,
2013-08-17 17:21:00,71.1,70.2,30.04,East,90,0.0,0.0,97,0.00,,,0.07,LWC V2.00 B2112,2013-08-17 21:21:00,
2013-08-17 17:26:00,70.9,70.0,30.04,East,90,0.0,0.0,97,0.00,,,0.07,LWC V2.00 B2112,2013-08-17 21:26:00,
2013-08-17 17:31:00,70.9,70.0,30.04,East,90,0.0,0.0,97,0.00,,,0.07,LWC V2.00 B2112,2013-08-17 21:31:00,
2013-08-17 17:36:00,70.9,70.0,30.04,East,90,0.0,0.0,97,0.00,,,0.08,LWC V2.00 B2112,2013-08-17 21:36:00,
2013-08-17 17:41:00,70.8,69.9,30.04,East,90,0.0,0.0,97,0.00,,,0.08,LWC V2.00 B2112,2013-08-17 21:41:00,
2013-08-17 17:46:00,70.8,69.9,30.04,NE,34,0.0,0.0,97,0.00,,,0.08,LWC V2.00 B2112,2013-08-17 21:46:00,
2013-08-17 17:51:00,70.8,69.9,30.04,ENE,77,0.0,0.0,97,0.00,,,0.08,LWC V2.00 B2112,2013-08-17 21:51:00,
2013-08-17 17:56:00,70.6,69.7,30.04,East,95,0.0,0.0,97,0.00,,,0.08,LWC V2.00 B2112,2013-08-17 21:56:00,
2013-08-17 18:01:00,70.6,69.7,30.04,NNE,32,0.0,0.0,97,0.00,,,0.08,LWC V2.00 B2112,2013-08-17 22:01:00,
2013-08-17 18:06:00,70.4,69.8,30.04,NNE,32,0.0,0.0,98,0.00,,,0.08,LWC V2.00 B2112,2013-08-17 22:06:00,
2013-08-17 18:11:00,70.4,69.8,30.04,NNE,33,0.0,0.0,98,0.00,,,0.08,LWC V2.00 B2112,2013-08-17 22:11:00,
2013-08-17 18:16:00,70.4,69.8,30.04,NE,46,0.0,0.0,98,0.00,,,0.08,LWC V2.00 B2112,2013-08-17 22:16:00,
2013-08-17 18:21:00,70.3,69.7,30.05,NE,56,0.0,0.0,98,0.00,,,0.08,LWC V2.00 B2112,2013-08-17 22:21:00,
2013-08-17 18:26:00,70.3,69.7,30.05,ENE,69,0.0,0.0,98,0.00,,,0.08,LWC V2.00 B2112,2013-08-17 22:26:00,
2013-08-17 18:31:00,70.1,69.5,30.05,ENE,69,0.0,0.0,98,0.00,,,0.08,LWC V2.00 B2112,2013-08-17 22:31:00,
2013-08-17 18:36:00,70.1,69.5,30.04,ENE,69,0.0,0.0,98,0.00,,,0.08,LWC V2.00 B2112,2013-08-17 22:36:00,
2013-08-17 18:41:00,69.9,69.3,30.04,ENE,69,0.0,0.0,98,0.00,,,0.08,LWC V2.00 B2112,2013-08-17 22:41:00,
2013-08-17 18:46:00,69.8,69.2,30.04,ENE,72,0.0,0.0,98,0.00,,,0.08,LWC V2.00 B2112,2013-08-17 22:46:00,
2013-08-17 18:51:00,69.8,69.2,30.04,South,187,0.0,0.0,98,0.00,,,0.08,LWC V2.00 B2112,2013-08-17 22:51:00,
2013-08-17 18:56:00,69.6,69.0,30.04,NE,53,0.0,1.0,98,0.00,,,0.08,LWC V2.00 B2112,2013-08-17 22:56:00,
2013-08-17 19:01:00,69.6,69.0,30.04,NE,53,0.0,0.0,98,0.00,,,0.09,LWC V2.00 B2112,2013-08-17 23:01:00,
2013-08-17 19:06:00,69.4,68.8,30.05,NE,53,0.0,0.0,98,0.00,,,0.09,LWC V2.00 B2112,2013-08-17 23:06:00,
2013-08-17 19:11:00,69.3,68.7,30.05,NE,53,0.0,0.0,98,0.00,,,0.09,LWC V2.00 B2112,2013-08-17 23:11:00,
2013-08-17 19:16:00,69.3,68.7,30.05,NNE,31,0.0,0.0,98,0.00,,,0.09,LWC V2.00 B2112,2013-08-17 23:16:00,
2013-08-17 19:21:00,69.3,68.7,30.04,NNE,31,0.0,0.0,98,0.00,,,0.09,LWC V2.00 B2112,2013-08-17 23:21:00,
2013-08-17 19:26:00,69.1,68.5,30.04,NE,39,0.0,0.0,98,0.00,,,0.09,LWC V2.00 B2112,2013-08-17 23:26:00,
2013-08-17 19:31:00,69.1,68.5,30.04,NE,39,0.0,0.0,98,0.00,,,0.09,LWC V2.00 B2112,2013-08-17 23:31:00,
2013-08-17 19:36:00,68.9,68.3,30.05,NE,39,0.0,0.0,98,0.00,,,0.09,LWC V2.00 B2112,2013-08-17 23:36:00,
2013-08-17 19:41:00,68.9,68.3,30.05,NE,40,0.0,0.0,98,0.00,,,0.09,LWC V2.00 B2112,2013-08-17 23:41:00,
2013-08-17 19:46:00,68.9,68.3,30.05,NE,40,0.0,0.0,98,0.00,,,0.09,LWC V2.00 B2112,2013-08-17 23:46:00,
2013-08-17 19:51:00,68.9,68.3,30.05,NE,40,0.0,0.0,98,0.00,,,0.09,LWC V2.00 B2112,2013-08-17 23:51:00,
2013-08-17 19:56:00,68.8,68.2,30.05,NNE,26,0.0,0.0,98,0.00,,,0.09,LWC V2.00 B2112,2013-08-17 23:56:00,
2013-08-17 20:01:00,68.8,68.2,30.05,NNE,26,0.0,0.0,98,0.00,,,0.09,LWC V2.00 B2112,2013-08-18 00:01:00,
2013-08-17 20:06:00,68.8,68.2,30.05,NE,51,0.0,0.0,98,0.00,,,0.09,LWC V2.00 B2112,2013-08-18 00:06:00,
2013-08-17 20:11:00,68.8,68.2,30.05,NE,51,0.0,0.0,98,0.00,,,0.09,LWC V2.00 B2112,2013-08-18 00:11:00,
2013-08-17 20:16:00,68.6,68.0,30.05,NE,51,0.0,0.0,98,0.00,,,0.09,LWC V2.00 B2112,2013-08-18 00:16:00,
2013-08-17 20:21:00,68.6,68.0,30.05,NE,51,0.0,0.0,98,0.27,,,0.11,LWC V2.00 B2112,2013-08-18 00:21:00,
2013-08-17 20:26:00,68.6,68.0,30.05,NE,51,0.0,0.0,98,0.08,,,0.11,LWC V2.00 B2112,2013-08-18 00:26:00,
2013-08-17 20:31:00,68.6,68.3,30.05,NE,51,0.0,0.0,99,0.05,,,0.11,LWC V2.00 B2112,2013-08-18 00:31:00,
2013-08-17 20:36:00,68.6,68.3,30.05,NE,51,0.0,0.0,99,0.00,,,0.11,LWC V2.00 B2112,2013-08-18 00:36:00,
2013-08-17 20:41:00,68.6,68.3,30.05,NE,51,0.0,0.0,99,0.00,,,0.11,LWC V2.00 B2112,2013-08-18 00:41:00,
2013-08-17 20:46:00,68.6,68.3,30.05,NE,51,0.0,0.0,99,0.00,,,0.11,LWC V2.00 B2112,2013-08-18 00:46:00,
2013-08-17 20:51:00,68.4,68.1,30.05,NE,51,0.0,0.0,99,0.00,,,0.11,LWC V2.00 B2112,2013-08-18 00:51:00,
2013-08-17 20:56:00,68.4,68.1,30.05,NE,51,0.0,0.0,99,0.00,,,0.12,LWC V2.00 B2112,2013-08-18 00:56:00,
2013-08-17 21:01:00,68.4,68.1,30.05,NE,52,0.0,0.0,99,0.00,,,0.12,LWC V2.00 B2112,2013-08-18 01:01:00,
2013-08-17 21:06:00,68.4,68.1,30.05,NE,52,0.0,0.0,99,0.00,,,0.12,LWC V2.00 B2112,2013-08-18 01:06:00,
2013-08-17 21:11:00,68.4,68.1,30.05,WNW,290,0.0,0.0,99,0.00,,,0.12,LWC V2.00 B2112,2013-08-18 01:11:00,
2013-08-17 21:16:00,68.4,68.1,30.05,WNW,290,0.0,0.0,99,0.00,,,0.12,LWC V2.00 B2112,2013-08-18 01:16:00,
2013-08-17 21:21:00,68.4,68.1,30.07,WNW,290,0.0,0.0,99,0.00,,,0.12,LWC V2.00 B2112,2013-08-18 01:21:00,
2013-08-17 21:26:00,68.4,68.1,30.07,WNW,290,0.0,0.0,99,0.00,,,0.12,LWC V2.00 B2112,2013-08-18 01:26:00,
2013-08-17 21:31:00,68.4,68.1,30.07,WNW,290,0.0,0.0,99,0.00,,,0.12,LWC V2.00 B2112,2013-08-18 01:31:00,
2013-08-17 21:36:00,68.4,68.1,30.07,WNW,290,0.0,0.0,99,0.00,,,0.12,LWC V2.00 B2112,2013-08-18 01:36:00,
2013-08-17 21:41:00,68.3,68.0,30.07,WNW,290,0.0,0.0,99,0.00,,,0.12,LWC V2.00 B2112,2013-08-18 01:41:00,
2013-08-17 21:46:00,68.3,68.0,30.07,WNW,290,0.0,0.0,99,0.00,,,0.12,LWC V2.00 B2112,2013-08-18 01:46:00,
2013-08-17 21:51:00,68.3,68.0,30.07,WNW,290,0.0,0.0,99,0.00,,,0.12,LWC V2.00 B2112,2013-08-18 01:51:00,
2013-08-17 21:56:00,68.3,68.0,30.07,SSW,194,0.0,0.0,99,0.00,,,0.12,LWC V2.00 B2112,2013-08-18 01:56:00,
2013-08-17 22:01:00,68.3,68.0,30.07,ENE,63,0.0,0.0,99,0.00,,,0.12,LWC V2.00 B2112,2013-08-18 02:01:00,
2013-08-17 22:06:00,68.3,68.0,30.07,ENE,63,0.0,0.0,99,0.00,,,0.12,LWC V2.00 B2112,2013-08-18 02:06:00,
2013-08-17 22:11:00,68.1,67.8,30.07,ENE,63,0.0,0.0,99,0.00,,,0.12,LWC V2.00 B2112,2013-08-18 02:11:00,
2013-08-17 22:16:00,68.1,67.8,30.07,ENE,63,0.0,0.0,99,0.00,,,0.12,LWC V2.00 B2112,2013-08-18 02:16:00,
2013-08-17 22:21:00,68.1,67.8,30.07,ENE,63,0.0,0.0,99,0.00,,,0.12,LWC V2.00 B2112,2013-08-18 02:21:00,
2013-08-17 22:26:00,68.1,67.8,30.07,ENE,63,0.0,0.0,99,0.00,,,0.12,LWC V2.00 B2112,2013-08-18 02:26:00,
2013-08-17 22:31:00,68.1,67.8,30.07,ENE,63,0.0,0.0,99,0.00,,,0.12,LWC V2.00 B2112,2013-08-18 02:31:00,
2013-08-17 22:36:00,68.1,67.8,30.07,ENE,63,0.0,0.0,99,0.00,,,0.12,LWC V2.00 B2112,2013-08-18 02:36:00,
2013-08-17 22:41:00,68.3,68.0,30.07,ENE,63,0.0,0.0,99,0.00,,,0.12,LWC V2.00 B2112,2013-08-18 02:41:00,
2013-08-17 22:46:00,68.3,68.0,30.07,ENE,63,0.0,0.0,99,0.00,,,0.12,LWC V2.00 B2112,2013-08-18 02:46:00,
2013-08-17 22:51:00,68.3,68.3,30.07,ENE,63,0.0,0.0,100,0.00,,,0.12,LWC V2.00 B2112,2013-08-18 02:51:00,
2013-08-17 22:56:00,68.3,68.3,30.07,ENE,58,0.0,0.0,100,0.00,,,0.12,LWC V2.00 B2112,2013-08-18 02:56:00,
2013-08-17 23:01:00,68.3,68.3,30.07,ENE,58,0.0,0.0,100,0.00,,,0.12,LWC V2.00 B2112,2013-08-18 03:01:00,
2013-08-17 23:06:00,68.3,68.3,30.06,ENE,58,0.0,0.0,100,0.00,,,0.12,LWC V2.00 B2112,2013-08-18 03:06:00,
2013-08-17 23:11:00,68.3,68.3,30.06,ENE,58,0.0,0.0,100,0.00,,,0.12,LWC V2.00 B2112,2013-08-18 03:11:00,
2013-08-17 23:16:00,68.3,68.3,30.06,ENE,58,0.0,0.0,100,0.00,,,0.12,LWC V2.00 B2112,2013-08-18 03:16:00,
2013-08-17 23:21:00,68.3,68.3,30.07,ENE,58,0.0,0.0,100,0.00,,,0.12,LWC V2.00 B2112,2013-08-18 03:21:00,
2013-08-17 23:26:00,68.3,68.3,30.07,ENE,58,0.0,0.0,100,0.00,,,0.12,LWC V2.00 B2112,2013-08-18 03:26:00,
2013-08-17 23:31:00,68.3,68.3,30.07,ENE,58,0.0,0.0,100,0.00,,,0.12,LWC V2.00 B2112,2013-08-18 03:31:00,
2013-08-17 23:36:00,68.3,68.3,30.07,ENE,58,0.0,0.0,100,0.00,,,0.12,LWC V2.00 B2112,2013-08-18 03:36:00,
2013-08-17 23:41:00,68.3,68.3,30.07,ENE,58,0.0,0.0,100,0.00,,,0.12,LWC V2.00 B2112,2013-08-18 03:41:00,
2013-08-17 23:46:00,68.3,68.3,30.07,ENE,58,0.0,0.0,100,0.00,,,0.12,LWC V2.00 B2112,2013-08-18 03:46:00,
2013-08-17 23:51:00,68.3,68.3,30.07,ENE,58,0.0,0.0,100,0.00,,,0.12,LWC V2.00 B2112,2013-08-18 03:51:00,
2013-08-17 23:56:00,68.3,68.3,30.07,ENE,58,0.0,0.0,100,0.00,,,0.12,LWC V2.00 B2112,2013-08-18 03:56:00,